createdAt,value
2023-04-13T00:02:27.429Z,0.90
2023-04-13T00:04:54.762Z,0.80
2023-04-13T00:07:22.878Z,0.77
2023-04-13T00:09:50.730Z,1.00
2023-04-13T00:12:21.247Z,0.73
2023-04-13T00:14:50.834Z,0.80
2023-04-13T00:17:18.079Z,1.10
2023-04-13T00:19:48.098Z,0.90
2023-04-13T00:22:15.466Z,0.90
2023-04-13T00:24:44.145Z,0.93
2023-04-13T00:27:12.079Z,0.90
2023-04-13T00:29:39.480Z,0.90
2023-04-13T00:32:06.679Z,0.70
2023-04-13T00:34:33.870Z,0.93
2023-04-13T00:37:02.196Z,1.07
2023-04-13T00:39:31.273Z,1.27
2023-04-13T00:42:02.149Z,0.83
2023-04-13T00:44:30.736Z,0.97
2023-04-13T00:46:57.565Z,0.83
2023-04-13T00:49:24.347Z,1.03
2023-04-13T00:51:51.362Z,0.67
2023-04-13T00:54:19.488Z,0.83
2023-04-13T00:56:46.439Z,1.10
2023-04-13T00:59:14.231Z,0.97
2023-04-13T01:01:50.413Z,1.00
2023-04-13T01:04:20.388Z,0.90
2023-04-13T01:07:27.456Z,1.00
2023-04-13T01:10:17.109Z,0.90
2023-04-13T01:12:50.790Z,0.80
2023-04-13T01:15:19.655Z,1.10
2023-04-13T01:17:58.161Z,0.67
2023-04-13T01:20:27.676Z,1.00
2023-04-13T01:22:56.981Z,1.20
2023-04-13T01:25:50.142Z,0.60
2023-04-13T01:28:18.526Z,0.70
2023-04-13T01:30:47.521Z,0.90
2023-04-13T01:33:14.942Z,0.87
2023-04-13T01:35:42.152Z,0.60
2023-04-13T01:38:10.153Z,0.80
2023-04-13T01:40:40.902Z,1.10
2023-04-13T01:43:08.695Z,0.83
2023-04-13T01:45:49.899Z,0.90
2023-04-13T01:48:34.363Z,0.60
2023-04-13T01:51:11.481Z,0.70
2023-04-13T01:53:42.515Z,0.77
2023-04-13T01:56:10.018Z,0.60
2023-04-13T01:58:37.832Z,0.60
2023-04-13T02:01:07.913Z,0.53
2023-04-13T02:06:03.016Z,0.70
2023-04-13T02:08:32.929Z,0.53
2023-04-13T02:11:00.997Z,0.67
2023-04-13T02:13:28.253Z,0.60
2023-04-13T02:15:55.102Z,0.77
2023-04-13T02:18:23.792Z,0.80
2023-04-13T02:21:01.828Z,0.60
2023-04-13T02:23:29.925Z,0.80
2023-04-13T02:25:56.711Z,0.80
2023-04-13T02:28:23.896Z,0.83
2023-04-13T02:30:51.151Z,0.77
2023-04-13T02:33:19.178Z,0.90
2023-04-13T02:35:46.007Z,0.90
2023-04-13T02:38:12.789Z,0.70
2023-04-13T02:40:39.566Z,0.80
2023-04-13T02:43:06.382Z,0.80
2023-04-13T02:45:33.204Z,0.73
2023-04-13T02:48:00.172Z,1.00
2023-04-13T02:50:28.021Z,0.93
2023-04-13T02:52:54.976Z,0.70
2023-04-13T02:55:21.741Z,1.80
2023-04-13T02:57:49.742Z,0.90
2023-04-13T03:00:16.960Z,0.97
2023-04-13T03:02:44.800Z,1.40
2023-04-13T03:05:13.020Z,1.50
2023-04-13T03:07:39.879Z,1.10
2023-04-13T03:10:09.037Z,0.90
2023-04-13T03:12:36.886Z,0.83
2023-04-13T03:15:11.256Z,1.10
2023-04-13T03:17:41.500Z,1.20
2023-04-13T03:20:13.099Z,0.87
2023-04-13T03:22:40.232Z,1.53
2023-04-13T03:25:08.571Z,1.10
2023-04-13T03:27:36.649Z,1.00
2023-04-13T03:30:04.428Z,1.50
2023-04-13T03:32:32.144Z,2.37
2023-04-13T03:34:59.184Z,2.00
2023-04-13T03:37:30.224Z,1.73
2023-04-13T03:39:58.250Z,1.43
2023-04-13T03:42:25.015Z,1.73
2023-04-13T03:44:52.171Z,1.60
2023-04-13T03:47:19.754Z,1.30
2023-04-13T03:49:46.594Z,2.20
2023-04-13T03:52:13.344Z,2.10
2023-04-13T03:54:40.532Z,1.53
2023-04-13T03:57:09.903Z,1.73
2023-04-13T03:59:36.752Z,1.97
2023-04-13T04:02:03.745Z,1.80
2023-04-13T04:04:30.617Z,0.93
2023-04-13T04:06:58.111Z,1.00
2023-04-13T04:09:25.589Z,1.20
2023-04-13T04:11:52.491Z,1.03
2023-04-13T04:14:20.443Z,1.80
2023-04-13T04:16:47.453Z,1.00
2023-04-13T04:19:14.419Z,0.93
2023-04-13T04:21:44.742Z,1.07
2023-04-13T04:24:12.569Z,1.17
2023-04-13T04:26:40.261Z,1.07
2023-04-13T04:29:09.824Z,0.80
2023-04-13T04:31:43.608Z,0.87
2023-04-13T04:34:11.668Z,0.53
2023-04-13T04:36:41.896Z,1.27
2023-04-13T04:39:09.984Z,0.90
2023-04-13T04:41:37.937Z,0.90
2023-04-13T04:44:08.472Z,1.00
2023-04-13T04:46:38.836Z,0.70
2023-04-13T04:49:05.632Z,1.30
2023-04-13T04:51:33.389Z,1.20
2023-04-13T04:54:02.165Z,1.00
2023-04-13T04:56:29.083Z,0.87
2023-04-13T04:58:55.969Z,1.00
2023-04-13T05:01:26.480Z,1.30
2023-04-13T05:03:53.847Z,1.37
2023-04-13T05:06:20.834Z,1.17
2023-04-13T05:08:47.658Z,1.70
2023-04-13T05:11:14.427Z,1.37
2023-04-13T05:13:41.964Z,1.60
2023-04-13T05:16:10.718Z,1.93
2023-04-13T05:18:45.928Z,1.57
2023-04-13T05:21:14.175Z,1.33
2023-04-13T05:23:44.312Z,1.70
2023-04-13T05:26:12.299Z,1.40
2023-04-13T05:28:39.575Z,1.70
2023-04-13T05:31:11.229Z,1.53
2023-04-13T05:33:38.837Z,1.30
2023-04-13T05:36:06.201Z,1.30
2023-04-13T05:38:33.145Z,1.80
2023-04-13T05:41:00.201Z,1.77
2023-04-13T05:43:27.683Z,1.60
2023-04-13T05:45:54.780Z,1.80
2023-04-13T05:48:21.957Z,1.43
2023-04-13T05:50:48.876Z,1.30
2023-04-13T05:53:15.699Z,1.80
2023-04-13T05:55:44.779Z,1.77
2023-04-13T05:58:12.952Z,1.73
2023-04-13T06:00:40.218Z,1.90
2023-04-13T06:03:08.979Z,1.70
2023-04-13T06:05:36.692Z,2.07
2023-04-13T06:08:03.687Z,2.47
2023-04-13T06:10:30.689Z,2.20
2023-04-13T06:12:57.537Z,2.10
2023-04-13T06:15:24.715Z,1.80
2023-04-13T06:17:53.577Z,1.63
2023-04-13T06:20:21.620Z,2.10
2023-04-13T06:22:49.222Z,1.70
2023-04-13T06:25:16.617Z,1.73
2023-04-13T06:27:44.037Z,2.50
2023-04-13T06:30:12.159Z,1.70
2023-04-13T06:32:39.539Z,1.53
2023-04-13T06:35:06.838Z,1.97
2023-04-13T06:37:35.842Z,1.73
2023-04-13T06:40:12.975Z,2.00
2023-04-13T06:42:41.439Z,2.33
2023-04-13T06:45:12.495Z,2.17
2023-04-13T06:47:43.111Z,2.00
2023-04-13T06:50:13.900Z,2.27
2023-04-13T06:52:43.995Z,2.10
2023-04-13T06:55:10.999Z,1.90
2023-04-13T06:57:37.846Z,2.00
2023-04-13T07:00:12.635Z,2.57
2023-04-13T07:02:49.078Z,1.60
2023-04-13T07:05:16.585Z,1.97
2023-04-13T07:07:43.370Z,1.90
2023-04-13T07:10:10.584Z,2.53
2023-04-13T07:12:39.732Z,7.00
2023-04-13T07:15:07.795Z,2.60
2023-04-13T07:17:35.000Z,1.63
2023-04-13T07:20:01.861Z,1.60
2023-04-13T07:22:35.319Z,1.87
2023-04-13T07:25:02.917Z,1.70
2023-04-13T07:27:29.869Z,1.50
2023-04-13T07:29:56.795Z,1.47
2023-04-13T07:32:30.256Z,1.50
2023-04-13T07:35:02.070Z,1.63
2023-04-13T07:37:29.754Z,1.70
2023-04-13T07:39:56.687Z,2.30
2023-04-13T07:42:24.649Z,1.80
2023-04-13T07:44:54.635Z,2.77
2023-04-13T07:47:21.557Z,3.30
2023-04-13T07:49:48.382Z,2.40
2023-04-13T07:52:15.504Z,2.00
2023-04-13T07:54:42.261Z,2.13
2023-04-13T07:57:10.093Z,1.87
2023-04-13T07:59:36.836Z,1.70
2023-04-13T08:02:04.570Z,1.53
2023-04-13T08:04:31.918Z,1.50
2023-04-13T08:07:03.794Z,1.47
2023-04-13T08:09:36.287Z,1.77
2023-04-13T08:12:04.018Z,1.53
2023-04-13T08:14:31.035Z,1.80
2023-04-13T08:16:58.239Z,1.90
2023-04-13T08:19:25.327Z,1.77
2023-04-13T08:21:52.567Z,2.10
2023-04-13T08:24:22.667Z,2.00
2023-04-13T08:26:49.629Z,2.00
2023-04-13T08:29:16.422Z,1.77
2023-04-13T08:31:43.215Z,2.37
2023-04-13T08:34:11.639Z,2.13
2023-04-13T08:36:38.894Z,2.77
2023-04-13T08:39:06.190Z,1.83
2023-04-13T08:41:36.340Z,2.00
2023-04-13T08:44:08.076Z,2.07
2023-04-13T08:46:35.022Z,2.60
2023-04-13T08:49:03.170Z,2.27
2023-04-13T08:51:32.193Z,1.80
2023-04-13T08:54:00.186Z,2.17
2023-04-13T08:56:42.293Z,2.03
2023-04-13T08:59:13.487Z,1.90
2023-04-13T09:01:41.354Z,2.00
2023-04-13T09:04:11.001Z,2.13
2023-04-13T09:06:42.743Z,2.40
2023-04-13T09:09:11.437Z,3.80
2023-04-13T09:11:49.931Z,3.03
2023-04-13T09:14:22.522Z,2.43
2023-04-13T09:16:51.092Z,3.07
2023-04-13T09:19:36.601Z,2.47
2023-04-13T09:22:14.191Z,2.23
2023-04-13T09:24:44.838Z,3.13
2023-04-13T09:27:23.387Z,2.10
2023-04-13T09:29:52.819Z,2.30
2023-04-13T09:32:25.245Z,2.00
2023-04-13T09:35:24.920Z,3.07
2023-04-13T09:37:56.061Z,2.57
2023-04-13T09:40:23.464Z,2.10
2023-04-13T09:43:05.240Z,2.07
2023-04-13T09:45:45.902Z,1.90
2023-04-13T09:48:22.591Z,2.40
2023-04-13T09:51:04.402Z,2.27
2023-04-13T09:53:48.322Z,1.57
2023-04-13T09:56:16.151Z,2.07
2023-04-13T09:58:44.928Z,1.80
2023-04-13T10:01:12.164Z,2.20
2023-04-13T10:03:39.657Z,2.10
2023-04-13T10:06:08.274Z,2.30
2023-04-13T10:08:38.922Z,2.00
2023-04-13T10:11:13.421Z,1.93
2023-04-13T10:14:02.844Z,2.23
2023-04-13T10:16:54.060Z,1.97
2023-04-13T10:19:30.907Z,1.90
2023-04-13T10:21:58.811Z,2.43
2023-04-13T10:24:26.310Z,1.83
2023-04-13T10:26:55.391Z,2.17
2023-04-13T10:29:29.375Z,2.10
2023-04-13T10:32:02.806Z,1.80
2023-04-13T10:34:32.575Z,2.53
2023-04-13T10:37:03.799Z,2.20
2023-04-13T10:39:33.520Z,2.70
2023-04-13T10:42:03.626Z,1.90
2023-04-13T10:44:43.650Z,2.33
2023-04-13T10:47:11.625Z,2.60
2023-04-13T10:49:39.121Z,2.30
2023-04-13T10:52:06.280Z,2.23
2023-04-13T10:54:35.231Z,2.30
2023-04-13T10:57:04.595Z,2.00
2023-04-13T10:59:59.262Z,2.27
2023-04-13T11:02:32.271Z,2.40
2023-04-13T11:05:00.378Z,1.60
2023-04-13T11:07:28.439Z,1.90
2023-04-13T11:10:04.017Z,2.00
2023-04-13T11:12:31.289Z,2.20
2023-04-13T11:14:59.160Z,2.00
2023-04-13T11:17:26.242Z,1.83
2023-04-13T11:19:55.498Z,2.43
2023-04-13T11:22:24.376Z,2.80
2023-04-13T11:24:51.839Z,2.67
2023-04-13T11:27:23.449Z,2.27
2023-04-13T11:30:07.668Z,1.70
2023-04-13T11:32:35.187Z,2.03
2023-04-13T11:35:15.117Z,2.80
2023-04-13T11:37:44.427Z,2.17
2023-04-13T11:40:21.478Z,2.07
2023-04-13T11:42:58.905Z,2.20
2023-04-13T11:45:28.709Z,2.10
2023-04-13T11:47:57.182Z,2.33
2023-04-13T11:50:24.302Z,2.20
2023-04-13T11:52:58.750Z,1.90
2023-04-13T11:55:26.255Z,2.20
2023-04-13T11:57:54.194Z,1.90
2023-04-13T12:00:26.488Z,2.10
2023-04-13T12:05:26.478Z,1.50
2023-04-13T12:07:57.293Z,2.03
2023-04-13T12:10:30.645Z,1.90
2023-04-13T12:13:19.864Z,1.55
2023-04-13T12:16:06.869Z,2.00
2023-04-13T12:21:21.649Z,1.63
2023-04-13T12:23:56.369Z,2.08
2023-04-13T12:28:57.822Z,2.00
2023-04-13T12:31:25.475Z,2.00
2023-04-13T12:33:52.744Z,2.65
2023-04-13T12:36:19.983Z,2.15
2023-04-13T12:38:47.169Z,2.42
2023-04-13T12:41:14.368Z,1.70
2023-04-13T12:43:41.528Z,2.03
2023-04-13T12:46:08.825Z,1.88
2023-04-13T12:48:36.345Z,2.25
2023-04-13T12:51:03.601Z,2.55
2023-04-13T12:53:30.779Z,2.42
2023-04-13T12:55:57.994Z,2.00
2023-04-13T12:58:25.381Z,2.08
2023-04-13T13:00:52.588Z,2.03
2023-04-13T13:03:19.824Z,1.80
2023-04-13T13:05:47.133Z,1.95
2023-04-13T13:08:14.338Z,4.80
2023-04-13T13:10:42.437Z,2.42
2023-04-13T13:13:09.853Z,2.60
2023-04-13T13:15:40.090Z,2.33
2023-04-13T13:18:09.127Z,3.70
2023-04-13T13:20:41.364Z,2.40
2023-04-13T13:23:12.609Z,1.95
2023-04-13T13:25:52.758Z,1.90
2023-04-13T13:28:31.576Z,1.80
2023-04-13T13:30:58.722Z,2.47
2023-04-13T13:33:26.224Z,1.75
2023-04-13T13:35:53.418Z,1.42
2023-04-13T13:38:20.951Z,1.75
2023-04-13T13:40:48.971Z,1.77
2023-04-13T13:43:21.420Z,2.22
2023-04-13T13:45:49.207Z,1.70
2023-04-13T13:48:16.842Z,2.83
2023-04-13T13:50:44.074Z,2.92
2023-04-13T13:53:11.877Z,1.98
2023-04-13T13:55:39.158Z,2.08
2023-04-13T13:58:06.334Z,2.00
2023-04-13T14:00:34.037Z,2.25
2023-04-13T14:03:01.650Z,2.05
2023-04-13T14:05:29.006Z,2.20
2023-04-13T14:07:56.418Z,1.83
2023-04-13T14:10:23.620Z,2.33
2023-04-13T14:12:51.932Z,1.98
2023-04-13T14:15:19.501Z,1.80
2023-04-13T14:17:55.915Z,2.00
2023-04-13T14:20:34.109Z,1.73
2023-04-13T14:23:01.470Z,2.35
2023-04-13T14:25:28.638Z,1.90
2023-04-13T14:27:56.412Z,1.60
2023-04-13T14:30:24.936Z,1.63
2023-04-13T14:32:53.168Z,1.92
2023-04-13T14:35:20.232Z,3.00
2023-04-13T14:37:47.539Z,1.48
2023-04-13T14:40:17.030Z,2.17
2023-04-13T14:42:45.594Z,2.28
2023-04-13T14:45:12.597Z,1.30
2023-04-13T14:47:40.221Z,1.75
2023-04-13T14:50:09.043Z,1.70
2023-04-13T14:52:36.393Z,2.35
2023-04-13T14:55:04.307Z,1.67
2023-04-13T14:57:32.353Z,2.50
2023-04-13T14:59:59.203Z,1.90
2023-04-13T15:02:28.639Z,1.52
2023-04-13T15:04:56.073Z,1.52
2023-04-13T15:07:29.924Z,1.50
2023-04-13T15:09:58.899Z,1.95
2023-04-13T15:12:25.881Z,1.30
2023-04-13T15:14:52.808Z,1.40
2023-04-13T15:17:21.145Z,1.60
2023-04-13T15:19:47.959Z,1.95
2023-04-13T15:22:14.770Z,1.55
2023-04-13T15:24:41.640Z,1.40
2023-04-13T15:27:11.613Z,1.25
2023-04-13T15:29:38.688Z,5.00
2023-04-13T15:32:05.760Z,1.40
2023-04-13T15:34:32.581Z,1.75
2023-04-13T15:36:59.461Z,1.67
2023-04-13T15:39:26.563Z,1.45
2023-04-13T15:41:55.160Z,1.35
2023-04-13T15:44:22.242Z,1.40
2023-04-13T15:46:49.001Z,1.70
2023-04-13T15:49:15.844Z,1.45
2023-04-13T15:51:42.692Z,1.83
2023-04-13T15:54:09.480Z,1.40
2023-04-13T15:56:36.638Z,1.50
2023-04-13T15:59:03.555Z,1.58
2023-04-13T16:01:45.257Z,1.25
2023-04-13T16:04:12.435Z,1.38
2023-04-13T16:06:39.789Z,1.50
2023-04-13T16:09:09.703Z,1.15
2023-04-13T16:11:40.178Z,1.52
2023-04-13T16:14:10.201Z,1.95
2023-04-13T16:16:53.313Z,2.67
2023-04-13T16:19:21.049Z,0.98
2023-04-13T16:21:50.822Z,1.50
2023-04-13T16:24:21.377Z,1.30
2023-04-13T16:26:48.724Z,2.40
2023-04-13T16:29:15.601Z,1.88
2023-04-13T16:31:44.977Z,1.70
2023-04-13T16:34:24.430Z,1.50
2023-04-13T16:36:52.708Z,1.27
2023-04-13T16:39:19.494Z,1.00
2023-04-13T16:41:46.296Z,1.40
2023-04-13T16:44:13.135Z,1.33
2023-04-13T16:46:40.020Z,1.45
2023-04-13T16:49:06.910Z,1.00
2023-04-13T16:51:33.731Z,0.95
2023-04-13T16:54:00.704Z,1.17
2023-04-13T16:56:30.422Z,1.83
2023-04-13T16:58:57.708Z,2.03
2023-04-13T17:01:25.713Z,1.80
2023-04-13T17:03:53.383Z,1.70
2023-04-13T17:06:21.330Z,1.58
2023-04-13T17:08:48.715Z,2.13
2023-04-13T17:11:15.672Z,1.50
2023-04-13T17:13:42.537Z,1.70
2023-04-13T17:16:10.340Z,1.98
2023-04-13T17:18:37.528Z,2.15
2023-04-13T17:21:04.558Z,2.17
2023-04-13T17:23:31.568Z,2.03
2023-04-13T17:25:58.438Z,1.85
2023-04-13T17:28:25.593Z,1.60
2023-04-13T17:30:52.497Z,1.85
2023-04-13T17:33:19.325Z,1.90
2023-04-13T17:35:46.391Z,2.38
2023-04-13T17:38:13.204Z,1.63
2023-04-13T17:40:39.975Z,1.73
2023-04-13T17:43:08.659Z,1.75
2023-04-13T17:45:36.442Z,1.35
2023-04-13T17:48:05.173Z,1.30
2023-04-13T17:50:32.863Z,1.65
2023-04-13T17:53:04.248Z,2.40
2023-04-13T17:55:31.590Z,1.60
2023-04-13T17:57:58.435Z,0.97
2023-04-13T18:00:26.980Z,1.40
2023-04-13T18:02:54.272Z,1.33
2023-04-13T18:05:21.817Z,1.67
2023-04-13T18:07:48.824Z,1.70
2023-04-13T18:10:15.770Z,2.33
2023-04-13T18:12:42.615Z,2.50
2023-04-13T18:15:10.495Z,1.77
2023-04-13T18:17:38.786Z,2.73
2023-04-13T18:20:06.429Z,4.20
2023-04-13T18:22:33.470Z,2.60
2023-04-13T18:25:00.539Z,5.20
2023-04-13T18:27:27.737Z,4.23
2023-04-13T18:29:55.636Z,2.10
2023-04-13T18:32:23.499Z,2.00
2023-04-13T18:34:50.429Z,2.37
2023-04-13T18:37:17.283Z,2.70
2023-04-13T18:39:44.964Z,1.80
2023-04-13T18:42:12.064Z,2.10
2023-04-13T18:44:41.938Z,3.50
2023-04-13T18:47:08.829Z,4.77
2023-04-13T18:49:35.965Z,4.93
2023-04-13T18:52:02.940Z,4.57
2023-04-13T18:54:30.013Z,2.37
2023-04-13T18:56:56.753Z,3.20
2023-04-13T18:59:23.545Z,3.93
2023-04-13T19:01:51.236Z,4.53
2023-04-13T19:04:18.106Z,4.47
2023-04-13T19:06:44.922Z,4.20
2023-04-13T19:09:11.759Z,3.90
2023-04-13T19:11:46.591Z,4.50
2023-04-13T19:14:13.396Z,4.33
2023-04-13T19:16:41.563Z,5.63
2023-04-13T19:19:09.042Z,3.50
2023-04-13T19:21:35.897Z,4.60
2023-04-13T19:24:02.938Z,4.20
2023-04-13T19:26:30.503Z,4.17
2023-04-13T19:28:57.443Z,4.40
2023-04-13T19:31:24.443Z,3.40
2023-04-13T19:33:52.158Z,3.63
2023-04-13T19:36:18.944Z,3.53
2023-04-13T19:38:47.010Z,3.43
2023-04-13T19:41:13.961Z,3.20
2023-04-13T19:43:40.834Z,4.00
2023-04-13T19:46:07.776Z,3.20
2023-04-13T19:48:34.639Z,3.37
2023-04-13T19:51:01.937Z,3.10
2023-04-13T19:53:28.738Z,3.27
2023-04-13T19:56:00.166Z,2.70
2023-04-13T19:58:29.306Z,2.83
2023-04-13T20:00:57.634Z,2.73
2023-04-13T20:03:26.161Z,2.87
2023-04-13T20:05:54.204Z,2.97
2023-04-13T20:08:21.551Z,3.27
2023-04-13T20:10:48.781Z,2.43
2023-04-13T20:13:17.335Z,2.90
2023-04-13T20:15:44.655Z,2.70
2023-04-13T20:18:11.922Z,3.07
2023-04-13T20:20:39.694Z,3.27
2023-04-13T20:23:08.038Z,4.13
2023-04-13T20:25:35.497Z,3.70
2023-04-13T20:28:02.682Z,5.20
2023-04-13T20:30:30.144Z,3.33
2023-04-13T20:32:57.405Z,4.43
2023-04-13T20:35:24.774Z,3.67
2023-04-13T20:37:52.039Z,3.77
2023-04-13T20:40:19.244Z,3.60
2023-04-13T20:42:46.453Z,3.10
2023-04-13T20:45:14.859Z,3.80
2023-04-13T20:47:42.808Z,3.53
2023-04-13T20:50:11.033Z,4.00
2023-04-13T20:52:41.832Z,4.20
2023-04-13T20:55:12.167Z,3.37
2023-04-13T20:57:41.893Z,3.17
2023-04-13T21:00:19.299Z,3.57
2023-04-13T21:02:49.650Z,3.50
2023-04-13T21:05:22.383Z,3.63
2023-04-13T21:07:50.259Z,3.40
2023-04-13T21:10:17.729Z,3.70
2023-04-13T21:12:45.438Z,3.33
2023-04-13T21:15:15.481Z,6.10
2023-04-13T21:17:42.934Z,4.10
2023-04-13T21:20:10.914Z,3.63
2023-04-13T21:22:38.357Z,4.23
2023-04-13T21:25:05.856Z,3.50
2023-04-13T21:27:33.169Z,3.00
2023-04-13T21:30:00.444Z,3.60
2023-04-13T21:32:27.721Z,3.10
2023-04-13T21:34:55.790Z,3.73
2023-04-13T21:37:23.070Z,3.30
2023-04-13T21:39:50.397Z,4.57
2023-04-13T21:42:17.661Z,3.17
2023-04-13T21:44:44.864Z,3.87
2023-04-13T21:47:12.259Z,3.20
2023-04-13T21:49:41.819Z,2.87
2023-04-13T21:52:09.583Z,2.63
2023-04-13T21:54:37.249Z,2.70
2023-04-13T21:57:04.972Z,3.90
2023-04-13T21:59:32.306Z,2.40
2023-04-13T22:01:59.560Z,2.90
2023-04-13T22:04:27.041Z,2.63
2023-04-13T22:06:54.495Z,3.00
2023-04-13T22:09:22.230Z,3.87
2023-04-13T22:11:49.544Z,3.17
2023-04-13T22:14:16.704Z,2.63
2023-04-13T22:16:48.377Z,2.60
2023-04-13T22:19:16.114Z,2.70
2023-04-13T22:21:52.889Z,2.50
2023-04-13T22:24:20.105Z,1.77
2023-04-13T22:26:47.439Z,2.50
2023-04-13T22:29:15.156Z,2.23
2023-04-13T22:31:42.380Z,2.73
2023-04-13T22:34:10.233Z,2.00
2023-04-13T22:36:37.513Z,2.30
2023-04-13T22:39:05.107Z,4.70
2023-04-13T22:41:32.282Z,2.50
2023-04-13T22:43:59.455Z,3.07
2023-04-13T22:46:26.701Z,2.90
2023-04-13T22:48:53.940Z,2.50
2023-04-13T22:51:21.075Z,3.10
2023-04-13T22:53:51.385Z,3.67
2023-04-13T22:56:19.436Z,3.13
2023-04-13T22:58:46.680Z,2.87
2023-04-13T23:01:14.005Z,2.90
2023-04-13T23:03:42.457Z,2.97
2023-04-13T23:06:10.611Z,3.40
2023-04-13T23:08:37.820Z,2.63
2023-04-13T23:11:09.300Z,2.90
2023-04-13T23:13:36.868Z,3.70
2023-04-13T23:16:05.877Z,2.80
2023-04-13T23:18:35.294Z,2.57
2023-04-13T23:21:10.033Z,2.43
2023-04-13T23:23:37.865Z,2.80
2023-04-13T23:26:05.309Z,2.40
2023-04-13T23:28:32.504Z,3.07
2023-04-13T23:31:05.407Z,2.70
2023-04-13T23:33:33.208Z,2.30
2023-04-13T23:36:01.445Z,2.87
2023-04-13T23:38:28.932Z,2.50
2023-04-13T23:40:56.350Z,2.40
2023-04-13T23:43:23.904Z,2.33
2023-04-13T23:45:52.223Z,2.40
2023-04-13T23:48:20.546Z,2.40
2023-04-13T23:50:48.368Z,2.40
2023-04-13T23:53:16.482Z,2.70
2023-04-13T23:55:43.731Z,2.90
2023-04-13T23:58:11.199Z,2.37
